Time;durP1;ratioP1;P1;durP2;ratioP2;P2;SDS_P1;SDS_P2;PMS_P1;PMS_P2;Temp;Humidity;BMP_temperature;BMP_pressure;BME280_temperature;BME280_humidity;BME280_pressure;Samples;Min_cycle;Max_cycle;Signal;HPM_P1;HPM_P2
2022/07/21 00:00:00;;;;;;;14.50;13.00;;;;;;;20.42;100.00;98384.91;5009011;28;1306165;-70
2022/07/21 00:02:27;;;;;;;15.57;14.27;;;;;;;20.34;100.00;98380.06;5055505;28;20241;-70
2022/07/21 00:04:53;;;;;;;15.13;13.73;;;;;;;20.33;100.00;98369.53;5055428;28;20212;-70
2022/07/21 00:07:19;;;;;;;13.87;12.67;;;;;;;20.31;100.00;98371.72;5055089;28;20205;-70
2022/07/21 00:09:46;;;;;;;12.50;11.50;;;;;;;20.25;100.00;98375.50;5055219;28;20327;-69
2022/07/21 00:12:12;;;;;;;13.57;12.43;;;;;;;20.35;100.00;98360.06;5054969;28;20737;-69
2022/07/21 00:14:39;;;;;;;13.47;12.30;;;;;;;20.25;100.00;98365.50;5055229;28;20207;-70
2022/07/21 00:17:05;;;;;;;13.60;12.30;;;;;;;20.24;100.00;98381.97;5055172;28;20216;-69
2022/07/21 00:19:32;;;;;;;13.87;12.77;;;;;;;20.16;100.00;98371.75;5055020;28;20232;-70
2022/07/21 00:21:58;;;;;;;14.07;12.73;;;;;;;20.13;100.00;98374.97;5054765;28;20654;-70
2022/07/21 00:24:24;;;;;;;14.13;12.93;;;;;;;20.10;100.00;98378.22;5055034;28;20205;-70
2022/07/21 00:26:51;;;;;;;15.30;13.90;;;;;;;20.04;100.00;98384.69;5054683;28;20567;-70
2022/07/21 00:29:17;;;;;;;13.83;12.53;;;;;;;19.99;100.00;98381.97;5054964;28;20227;-70
2022/07/21 00:31:44;;;;;;;14.13;12.57;;;;;;;19.96;100.00;98385.22;5054860;28;20292;-70
2022/07/21 00:34:10;;;;;;;14.47;13.00;;;;;;;19.90;100.00;98405.19;5054689;28;20216;-70
2022/07/21 00:36:36;;;;;;;14.00;12.90;;;;;;;19.91;100.00;98396.00;5054765;28;20571;-70
2022/07/21 00:39:03;;;;;;;14.60;13.40;;;;;;;19.95;100.00;98383.59;5054582;28;20600;-70
2022/07/21 00:41:29;;;;;;;14.10;12.90;;;;;;;19.80;100.00;98389.81;5054143;28;20205;-70
2022/07/21 00:43:56;;;;;;;15.57;14.03;;;;;;;19.83;100.00;98394.66;5054386;28;20219;-70
2022/07/21 00:46:22;;;;;;;15.43;13.83;;;;;;;19.94;100.00;98401.66;5054306;28;20691;-70
2022/07/21 00:48:49;;;;;;;15.00;13.43;;;;;;;19.87;100.00;98398.44;5054553;28;20251;-70
2022/07/21 00:51:15;;;;;;;14.07;12.80;;;;;;;20.03;100.00;98377.66;5054211;28;20661;-70
2022/07/21 00:53:42;;;;;;;14.60;13.30;;;;;;;20.09;100.00;98371.19;5054473;28;20211;-70
2022/07/21 00:56:08;;;;;;;15.50;13.90;;;;;;;20.10;100.00;98370.13;5054141;28;20296;-70
2022/07/21 00:58:35;;;;;;;15.60;14.20;;;;;;;20.01;100.00;98356.34;5054194;28;20240;-70
2022/07/21 01:01:02;;;;;;;15.33;13.93;;;;;;;20.05;100.00;98372.78;5054237;28;20241;-70
2022/07/21 01:03:28;;;;;;;14.53;13.20;;;;;;;20.02;100.00;98381.44;5054267;28;20296;-70
2022/07/21 01:05:54;;;;;;;15.63;14.33;;;;;;;20.00;100.00;98386.28;5053869;28;20244;-70
2022/07/21 01:08:21;;;;;;;15.57;14.07;;;;;;;20.03;100.00;98394.66;5054166;28;20227;-70
2022/07/21 01:10:47;;;;;;;14.47;13.20;;;;;;;20.07;100.00;98389.53;5054108;28;20369;-69
2022/07/21 01:13:14;;;;;;;15.30;14.00;;;;;;;20.06;100.00;98396.00;5052964;28;20201;-70
2022/07/21 01:15:40;;;;;;;15.57;14.27;;;;;;;20.03;100.00;98394.66;5054107;28;20228;-69
2022/07/21 01:18:07;;;;;;;16.00;14.60;;;;;;;19.93;100.00;98388.47;5053545;28;20211;-70
2022/07/21 01:20:36;;;;;;;16.20;14.80;;;;;;;19.94;100.00;98385.47;5053923;28;20221;-70
2022/07/21 01:23:03;;;;;;;16.53;14.90;;;;;;;19.99;100.00;98387.38;5054425;28;20530;-70
2022/07/21 01:25:30;;;;;;;15.27;13.93;;;;;;;19.94;100.00;98398.97;5053878;28;20205;-70
2022/07/21 01:27:56;;;;;;;16.27;14.73;;;;;;;19.85;100.00;98407.91;5053812;28;20216;-70
2022/07/21 01:30:22;;;;;;;14.37;12.97;;;;;;;19.97;100.00;98400.31;5053467;28;20723;-70
2022/07/21 01:32:49;;;;;;;15.13;13.70;;;;;;;19.88;100.00;98397.38;5053844;28;20213;-70
2022/07/21 01:35:16;;;;;;;15.90;14.33;;;;;;;19.89;100.00;98403.59;5053783;28;20690;-70
2022/07/21 01:37:45;;;;;;;14.90;13.60;;;;;;;19.93;100.00;98416.25;5053475;28;20201;-70
2022/07/21 01:42:57;;;;;;;15.30;14.00;;;;;;;19.82;100.00;98398.44;5054052;28;20172;-70
2022/07/21 01:45:24;;;;;;;15.20;13.70;;;;;;;19.68;100.00;98406.25;5053682;28;20212;-70
2022/07/21 01:47:51;;;;;;;15.80;14.10;;;;;;;19.82;100.00;98403.84;5053277;28;20631;-70
2022/07/21 01:50:20;;;;;;;15.40;14.10;;;;;;;19.78;100.00;98418.94;5053209;28;20224;-70
2022/07/21 01:52:47;;;;;;;14.53;13.33;;;;;;;19.82;100.00;98424.63;5053447;28;20301;-70
2022/07/21 01:55:13;;;;;;;15.03;13.60;;;;;;;19.91;100.00;98417.59;5053158;28;20201;-70
2022/07/21 01:57:40;;;;;;;15.57;14.03;;;;;;;19.77;100.00;98428.13;5053486;28;20208;-70
2022/07/21 02:00:07;;;;;;;14.83;13.30;;;;;;;19.83;100.00;98448.63;5053014;28;20229;-70
2022/07/21 02:02:33;;;;;;;13.43;12.23;;;;;;;19.83;100.00;98464.00;5053153;28;20229;-70
2022/07/21 02:05:00;;;;;;;15.17;12.20;;;;;;;19.86;100.00;98474.28;5053087;28;20771;-70
2022/07/21 02:07:26;;;;;;;14.83;13.27;;;;;;;19.76;100.00;98463.47;5053346;28;20296;-70
2022/07/21 02:09:53;;;;;;;15.03;13.40;;;;;;;19.75;100.00;98453.75;5052964;28;20722;-70
2022/07/21 02:12:19;;;;;;;13.90;12.60;;;;;;;19.77;100.00;98439.72;5053283;28;20296;-70
2022/07/21 02:14:45;;;;;;;14.50;13.10;;;;;;;19.68;100.00;98429.75;5052992;28;20210;-70
2022/07/21 02:17:12;;;;;;;14.40;13.10;;;;;;;19.69;100.00;98440.25;5053274;28;20215;-70
2022/07/21 02:19:38;;;;;;;14.70;13.17;;;;;;;19.62;100.00;98435.38;5053177;28;20316;-70
2022/07/21 02:22:05;;;;;;;14.17;12.97;;;;;;;19.62;100.00;98428.09;5053287;28;20205;-70
2022/07/21 02:24:31;;;;;;;17.23;14.37;;;;;;;19.62;100.00;98424.59;5052932;28;20212;-70
2022/07/21 02:26:58;;;;;;;14.60;13.20;;;;;;;19.63;100.00;98424.34;5053226;28;20215;-70
2022/07/21 02:29:24;;;;;;;14.57;13.30;;;;;;;19.60;100.00;98431.06;5053162;28;20225;-70
2022/07/21 02:31:51;;;;;;;14.37;13.07;;;;;;;19.72;100.00;98436.22;5052834;28;20211;-70
2022/07/21 02:34:17;;;;;;;16.23;14.57;;;;;;;19.66;100.00;98434.56;5053166;28;20209;-70
2022/07/21 02:36:44;;;;;;;15.33;14.03;;;;;;;19.65;100.00;98432.97;5053168;28;20201;-70
2022/07/21 02:39:10;;;;;;;13.90;12.67;;;;;;;19.65;100.00;98430.25;5052622;28;20653;-70
2022/07/21 02:41:37;;;;;;;14.03;12.60;;;;;;;19.67;100.00;98434.31;5052643;28;20686;-70
2022/07/21 02:44:03;;;;;;;15.53;14.00;;;;;;;19.71;100.00;98436.47;5052664;28;20287;-70
2022/07/21 02:46:29;;;;;;;14.63;13.27;;;;;;;19.65;100.00;98430.25;5053702;28;20526;-70
2022/07/21 02:48:56;;;;;;;14.27;12.87;;;;;;;19.63;100.00;98438.63;5052816;28;20312;-70
2022/07/21 02:51:22;;;;;;;14.60;13.10;;;;;;;19.68;100.00;98424.34;5052722;28;20206;-70
2022/07/21 02:53:48;;;;;;;14.37;13.10;;;;;;;19.72;100.00;98427.31;5053346;28;20551;-70
2022/07/21 02:56:16;;;;;;;16.13;14.73;;;;;;;19.67;100.00;98440.78;5052897;28;20207;-70
2022/07/21 02:58:42;;;;;;;17.03;15.30;;;;;;;19.65;100.00;98441.06;5052569;28;20664;-70
2022/07/21 03:01:09;;;;;;;13.93;12.70;;;;;;;19.58;100.00;98445.88;5053276;28;20308;-70
2022/07/21 03:03:37;;;;;;;12.07;10.97;;;;;;;19.63;100.00;98446.72;5052414;28;20695;-70
2022/07/21 03:06:05;;;;;;;13.13;12.10;;;;;;;19.67;100.00;98448.88;5055945;28;20580;-70
2022/07/21 03:08:32;;;;;;;13.93;12.73;;;;;;;19.63;100.00;98445.09;5056412;28;20259;-70
2022/07/21 03:10:58;;;;;;;13.63;12.40;;;;;;;19.64;100.00;98445.63;5056354;28;20283;-70
2022/07/21 03:13:24;;;;;;;12.93;11.93;;;;;;;19.62;100.00;98444.28;5055885;28;20211;-70
2022/07/21 03:15:51;;;;;;;12.03;10.90;;;;;;;19.63;100.00;98430.53;5056832;28;20286;-70
2022/07/21 03:18:18;;;;;;;13.47;12.27;;;;;;;19.63;100.00;98435.91;5055663;28;20652;-70
2022/07/21 03:20:45;;;;;;;13.53;12.33;;;;;;;19.73;100.00;98458.59;5055547;28;20691;-70
2022/07/21 03:23:12;;;;;;;13.47;12.30;;;;;;;19.68;100.00;98446.72;5055676;28;20570;-70
2022/07/21 03:25:38;;;;;;;13.93;12.57;;;;;;;19.62;100.00;98446.19;5056176;28;20211;-70
2022/07/21 03:28:06;;;;;;;12.93;11.73;;;;;;;19.60;100.00;98455.31;5055960;28;20212;-70
2022/07/21 03:30:33;;;;;;;12.47;11.37;;;;;;;19.66;100.00;98461.56;5055495;28;20663;-70
2022/07/21 03:32:59;;;;;;;12.70;11.57;;;;;;;19.65;100.00;98462.63;5055634;28;20209;-70
2022/07/21 03:35:25;;;;;;;12.37;11.37;;;;;;;19.63;100.00;98471.00;5055255;28;20207;-70
2022/07/21 03:37:54;;;;;;;12.43;10.97;;;;;;;19.59;100.00;98467.19;5055688;28;20208;-70
2022/07/21 03:40:24;;;;;;;9.83;9.00;;;;;;;19.49;100.00;98474.44;5055013;28;20312;-70
2022/07/21 03:42:53;;;;;;;12.00;10.90;;;;;;;19.57;100.00;98486.63;5055184;28;20276;-70
2022/07/21 03:45:20;;;;;;;13.03;10.70;;;;;;;19.64;100.00;98488.78;5055159;28;20304;-70
2022/07/21 03:47:46;;;;;;;10.70;9.90;;;;;;;19.55;100.00;98481.50;5055370;28;20300;-70
2022/07/21 03:50:14;;;;;;;11.13;10.07;;;;;;;19.61;100.00;98483.13;5055399;28;20221;-70
2022/07/21 03:52:41;;;;;;;11.17;10.17;;;;;;;19.55;100.00;98494.97;5055050;28;20286;-70
2022/07/21 03:55:14;;;;;;;11.63;10.57;;;;;;;19.56;100.00;98491.19;5055180;28;20657;-70
2022/07/21 03:57:45;;;;;;;11.30;10.40;;;;;;;19.55;100.00;98481.50;5054998;28;20640;-70
2022/07/21 04:00:17;;;;;;;11.50;10.40;;;;;;;19.66;100.00;98487.75;5055194;28;20283;-70
2022/07/21 04:02:44;;;;;;;12.20;11.00;;;;;;;19.59;100.00;98488.78;5055342;28;20243;-70
2022/07/21 04:05:12;;;;;;;12.13;10.93;;;;;;;19.70;100.00;98500.41;5055581;28;20207;-70
2022/07/21 04:07:41;;;;;;;12.10;10.90;;;;;;;19.69;100.00;98502.28;5055136;28;20224;-70
2022/07/21 04:10:09;;;;;;;12.93;11.63;;;;;;;19.69;100.00;98509.59;5055009;28;20225;-70
2022/07/21 04:12:36;;;;;;;13.10;11.83;;;;;;;19.71;100.00;98503.94;5055176;28;20205;-70
2022/07/21 04:15:02;;;;;;;12.10;10.87;;;;;;;19.75;100.00;98495.03;5054440;28;20814;-70
2022/07/21 04:17:29;;;;;;;11.93;10.93;;;;;;;19.77;100.00;98492.06;5054139;28;20291;-70
2022/07/21 04:19:55;;;;;;;11.50;10.40;;;;;;;19.78;100.00;98495.28;5054472;28;20590;-70
2022/07/21 04:22:21;;;;;;;12.07;10.93;;;;;;;19.81;100.00;98498.56;5054197;28;20560;-70
2022/07/21 04:24:48;;;;;;;12.13;11.13;;;;;;;19.71;100.00;98512.03;5054735;28;20291;-70
2022/07/21 04:27:14;;;;;;;12.30;11.30;;;;;;;19.68;100.00;98507.97;5054561;28;20217;-70
2022/07/21 04:29:41;;;;;;;12.10;11.10;;;;;;;19.67;100.00;98508.22;5054585;28;20221;-70
2022/07/21 04:32:07;;;;;;;12.30;11.13;;;;;;;19.68;100.00;98513.38;5054527;28;20260;-70
2022/07/21 04:34:33;;;;;;;11.67;10.67;;;;;;;19.58;100.00;98505.22;5054566;28;20201;-70
2022/07/21 04:37:00;;;;;;;12.57;11.30;;;;;;;19.58;100.00;98512.53;5054338;28;20212;-70
2022/07/21 04:39:27;;;;;;;12.10;11.00;;;;;;;19.54;100.00;98521.13;5054622;28;20229;-70
2022/07/21 04:41:54;;;;;;;11.83;10.83;;;;;;;19.55;100.00;98522.75;5054225;28;20292;-70
2022/07/21 04:44:20;;;;;;;12.30;10.87;;;;;;;19.63;100.00;98526.03;5053823;28;20292;-70
2022/07/21 04:46:46;;;;;;;12.20;11.07;;;;;;;19.67;100.00;98532.50;5053956;28;20212;-70
2022/07/21 04:49:13;;;;;;;12.77;11.67;;;;;;;19.62;100.00;98525.19;5054027;28;20229;-69
2022/07/21 04:51:40;;;;;;;13.17;11.77;;;;;;;19.63;100.00;98528.72;5053791;28;20205;-70
2022/07/21 04:54:06;;;;;;;13.20;11.83;;;;;;;19.60;100.00;98524.66;5053708;28;20229;-70
2022/07/21 04:56:34;;;;;;;13.33;12.03;;;;;;;19.50;100.00;98530.81;5053988;28;20201;-70
2022/07/21 04:59:01;;;;;;;11.73;10.83;;;;;;;19.58;100.00;98533.03;5053612;28;20614;-69
2022/07/21 05:01:28;;;;;;;13.10;11.87;;;;;;;19.67;100.00;98524.41;5053187;28;20703;-69
2022/07/21 05:03:54;;;;;;;12.57;11.57;;;;;;;19.75;100.00;98526.59;5053008;28;20208;-70
2022/07/21 05:06:20;;;;;;;11.57;10.53;;;;;;;19.77;100.00;98519.03;5053177;28;20209;-70
2022/07/21 05:08:47;;;;;;;13.17;11.97;;;;;;;19.91;100.00;98509.34;5053129;28;20221;-70
2022/07/21 05:11:14;;;;;;;10.77;9.87;;;;;;;20.26;100.00;98510.22;5053723;28;20255;-69
2022/07/21 05:13:40;;;;;;;11.93;10.73;;;;;;;20.65;100.00;98521.28;5053666;28;20205;-69
2022/07/21 05:16:06;;;;;;;11.70;10.50;;;;;;;20.97;100.00;98525.31;5053102;28;20205;-69
2022/07/21 05:18:33;;;;;;;11.90;10.80;;;;;;;21.22;100.00;98527.97;5053222;28;20220;-69
2022/07/21 05:20:59;;;;;;;11.40;10.20;;;;;;;21.21;100.00;98531.72;5053007;28;20707;-69
2022/07/21 05:23:26;;;;;;;11.63;10.57;;;;;;;21.12;100.00;98527.19;5053424;28;20205;-70
2022/07/21 05:25:52;;;;;;;11.67;10.47;;;;;;;20.84;100.00;98528.56;5053056;28;20211;-69
2022/07/21 05:28:19;;;;;;;10.80;9.80;;;;;;;20.89;100.00;98527.75;5052512;28;20215;-69
2022/07/21 05:30:45;;;;;;;12.20;10.83;;;;;;;20.80;100.00;98529.38;5052773;28;20667;-69
2022/07/21 05:33:11;;;;;;;12.27;11.27;;;;;;;20.64;100.00;98535.88;5053171;28;20292;-70
2022/07/21 05:35:38;;;;;;;11.90;10.83;;;;;;;20.62;100.00;98532.66;5052972;28;20207;-70
2022/07/21 05:38:05;;;;;;;10.80;9.90;;;;;;;20.51;100.00;98542.66;5052991;28;20212;-70
2022/07/21 05:40:31;;;;;;;12.60;11.60;;;;;;;20.44;100.00;98533.19;5052390;28;20274;-70
2022/07/21 05:42:58;;;;;;;12.77;11.37;;;;;;;20.43;100.00;98540.47;5052419;28;20205;-69
2022/07/21 05:45:24;;;;;;;13.20;12.03;;;;;;;20.48;100.00;98545.09;5052686;28;20213;-69
2022/07/21 05:47:50;;;;;;;14.07;12.70;;;;;;;20.48;100.00;98536.97;5052921;28;20202;-70
2022/07/21 05:50:17;;;;;;;13.00;12.03;;;;;;;20.48;100.00;98543.19;5052635;28;20745;-70
2022/07/21 05:52:43;;;;;;;13.33;12.10;;;;;;;20.54;100.00;98544.81;5052865;28;20202;-70
2022/07/21 05:55:10;;;;;;;13.50;12.30;;;;;;;20.50;100.00;98559.13;5052825;28;20208;-70
2022/07/21 05:57:38;;;;;;;13.93;12.50;;;;;;;20.46;100.00;98563.44;5052885;28;20209;-70
2022/07/21 06:00:06;;;;;;;15.20;13.60;;;;;;;20.40;100.00;98564.53;5052841;28;20324;-70
2022/07/21 06:02:32;;;;;;;13.73;12.53;;;;;;;20.37;100.00;98571.28;5052756;28;20288;-70
2022/07/21 06:04:59;;;;;;;13.23;12.10;;;;;;;20.45;100.00;98567.22;5052857;28;20213;-69
2022/07/21 06:07:26;;;;;;;14.10;12.80;;;;;;;20.50;100.00;98568.03;5052474;28;20215;-70
2022/07/21 06:09:54;;;;;;;13.83;12.43;;;;;;;20.68;100.00;98569.38;5052744;28;20225;-70
2022/07/21 06:12:20;;;;;;;13.30;11.97;;;;;;;20.79;100.00;98579.13;5052401;28;20577;-70
2022/07/21 06:14:47;;;;;;;13.13;11.93;;;;;;;20.91;100.00;98577.78;5052588;28;20206;-70
2022/07/21 06:17:13;;;;;;;13.20;12.10;;;;;;;21.08;100.00;98580.19;5053178;28;20205;-70
2022/07/21 06:19:39;;;;;;;13.13;11.93;;;;;;;21.03;100.00;98582.91;5052622;28;20316;-70
2022/07/21 06:22:06;;;;;;;12.47;11.33;;;;;;;20.87;100.00;98587.47;5052138;28;20228;-69
2022/07/21 06:24:32;;;;;;;12.37;11.10;;;;;;;20.83;100.00;98581.00;5052098;28;20581;-70
2022/07/21 06:26:59;;;;;;;11.90;10.77;;;;;;;20.62;100.00;98587.47;5052212;28;20247;-70
2022/07/21 06:29:25;;;;;;;12.23;10.10;;;;;;;20.76;100.00;98590.47;5052152;28;20308;-70
2022/07/21 06:31:52;;;;;;;11.90;10.70;;;;;;;20.73;100.00;98591.00;5052290;28;20201;-70
2022/07/21 06:34:18;;;;;;;10.50;9.50;;;;;;;20.63;100.00;98589.13;5052416;28;20209;-70
2022/07/21 06:36:45;;;;;;;11.90;10.17;;;;;;;20.62;100.00;98600.19;5052209;28;20201;-70
2022/07/21 06:39:12;;;;;;;12.73;11.53;;;;;;;20.74;100.00;98590.72;5052746;28;20712;-69
2022/07/21 06:41:38;;;;;;;10.97;9.87;;;;;;;20.91;100.00;98588.59;5056087;28;20225;-70
2022/07/21 06:44:06;;;;;;;11.37;10.20;;;;;;;20.93;100.00;98582.91;5056111;28;20231;-70
2022/07/21 06:46:34;;;;;;;10.10;9.17;;;;;;;20.81;100.00;98595.88;5055803;28;20205;-70
2022/07/21 06:49:01;;;;;;;10.97;9.87;;;;;;;20.68;100.00;98591.81;5056272;28;20252;-70
2022/07/21 06:51:27;;;;;;;10.87;9.97;;;;;;;20.89;100.00;98579.91;5056399;28;20201;-70
2022/07/21 06:53:54;;;;;;;11.37;10.27;;;;;;;20.98;100.00;98588.31;5056159;28;20205;-70
2022/07/21 06:56:20;;;;;;;12.33;10.63;;;;;;;21.02;100.00;98586.69;5056236;28;20291;-70
2022/07/21 06:58:47;;;;;;;11.00;9.70;;;;;;;21.15;100.00;98586.09;5056118;28;20249;-70
2022/07/21 07:01:16;;;;;;;9.33;8.47;;;;;;;21.20;100.00;98592.31;5055803;28;20225;-70
2022/07/21 07:03:43;;;;;;;8.77;8.03;;;;;;;21.25;93.57;98597.72;5056125;28;20220;-70
2022/07/21 07:06:10;;;;;;;9.57;8.67;;;;;;;21.26;99.29;98595.81;5056362;28;20292;-70
2022/07/21 07:08:38;;;;;;;9.27;8.37;;;;;;;21.28;89.09;98586.34;5055435;28;20232;-70
2022/07/21 07:11:04;;;;;;;9.27;8.30;;;;;;;21.25;92.55;98588.81;5055590;28;20600;-70
2022/07/21 07:13:31;;;;;;;8.83;8.13;;;;;;;21.36;93.66;98590.38;5055109;28;20209;-70
2022/07/21 07:15:57;;;;;;;9.07;8.27;;;;;;;21.45;98.75;98591.44;5055670;28;20209;-70
2022/07/21 07:18:25;;;;;;;9.87;8.20;;;;;;;21.51;88.77;98596.56;5055486;28;20226;-70
2022/07/21 07:20:51;;;;;;;9.93;8.27;;;;;;;21.61;88.31;98601.94;5055778;28;20221;-71
2022/07/21 07:23:18;;;;;;;10.00;9.10;;;;;;;21.63;90.13;98604.38;5055470;28;20212;-70
2022/07/21 07:25:44;;;;;;;9.40;8.60;;;;;;;21.63;93.62;98601.66;5055451;28;20209;-70
2022/07/21 07:28:11;;;;;;;9.03;8.23;;;;;;;21.69;94.68;98600.53;5054945;28;20205;-70
2022/07/21 07:30:38;;;;;;;9.07;8.20;;;;;;;21.56;89.37;98603.88;5055257;28;20288;-70
2022/07/21 07:33:05;;;;;;;8.57;7.77;;;;;;;21.49;89.57;98597.94;5055424;28;20579;-70
2022/07/21 07:35:31;;;;;;;8.57;7.77;;;;;;;21.71;90.46;98606.53;5055519;28;20216;-70
2022/07/21 07:37:58;;;;;;;9.03;8.20;;;;;;;21.91;85.97;98606.44;5055223;28;20209;-70
2022/07/21 07:40:24;;;;;;;9.00;8.20;;;;;;;21.98;90.76;98596.13;5054899;28;20664;-70
2022/07/21 07:42:52;;;;;;;8.13;7.43;;;;;;;22.09;83.37;98598.50;5055259;28;20261;-70
2022/07/21 07:45:18;;;;;;;7.30;6.60;;;;;;;22.11;78.92;98595.53;5054747;28;20682;-70
2022/07/21 07:47:45;;;;;;;7.80;6.90;;;;;;;22.28;79.44;98591.34;5055319;28;20211;-70
2022/07/21 07:50:13;;;;;;;7.80;6.70;;;;;;;22.40;80.77;98593.69;5054564;28;20235;-70
2022/07/21 07:52:41;;;;;;;7.17;6.57;;;;;;;22.54;80.03;98602.84;5055034;28;20213;-70
2022/07/21 07:55:10;;;;;;;7.67;6.97;;;;;;;22.71;83.89;98597.84;5055209;28;20233;-70
2022/07/21 07:57:37;;;;;;;7.60;6.97;;;;;;;22.71;83.07;98603.25;5054979;28;20201;-70
2022/07/21 08:00:07;;;;;;;7.50;6.80;;;;;;;22.72;82.49;98599.44;5054704;28;20232;-70
2022/07/21 08:02:33;;;;;;;7.93;6.80;;;;;;;22.61;74.52;98600.63;5055079;28;20233;-70
2022/07/21 08:04:59;;;;;;;6.93;6.33;;;;;;;22.69;78.41;98597.28;5054669;28;20665;-70
2022/07/21 08:07:26;;;;;;;8.02;6.55;;;;;;;22.80;73.23;98596.91;5055135;28;20579;-70
2022/07/21 08:09:52;;;;;;;7.50;6.60;;;;;;;23.20;74.09;98593.88;5055006;28;20342;-70
2022/07/21 08:12:19;;;;;;;6.00;5.50;;;;;;;23.23;69.48;98603.34;5054821;28;20284;-70
2022/07/21 08:14:45;;;;;;;5.95;5.35;;;;;;;23.25;65.99;98601.16;5054636;28;20616;-70
2022/07/21 08:17:11;;;;;;;6.43;5.82;;;;;;;22.99;72.04;98597.84;5054480;28;20211;-70
2022/07/21 08:19:38;;;;;;;6.53;5.93;;;;;;;22.97;72.25;98594.59;5054769;28;20224;-70
2022/07/21 08:22:04;;;;;;;6.85;6.25;;;;;;;22.95;73.97;98601.41;5054415;28;20692;-71
2022/07/21 08:24:30;;;;;;;6.60;5.80;;;;;;;22.86;74.88;98600.41;5055083;28;20209;-70
2022/07/21 08:26:57;;;;;;;6.65;5.57;;;;;;;22.70;73.48;98605.13;5054785;28;20213;-71
2022/07/21 08:29:23;;;;;;;6.15;5.55;;;;;;;22.87;71.58;98610.16;5054287;28;20232;-71
2022/07/21 08:31:50;;;;;;;5.40;5.00;;;;;;;22.78;71.64;98607.25;5053144;28;20205;-71
2022/07/21 08:34:16;;;;;;;6.53;5.93;;;;;;;22.74;74.96;98610.84;5054378;28;20205;-71
2022/07/21 08:36:42;;;;;;;6.45;5.28;;;;;;;22.61;70.42;98606.06;5054497;28;20630;-71
2022/07/21 08:39:09;;;;;;;6.53;5.93;;;;;;;22.56;71.78;98606.09;5054343;28;20225;-71
2022/07/21 08:41:37;;;;;;;6.78;6.15;;;;;;;22.58;73.65;98607.44;5054106;28;20247;-71
2022/07/21 08:44:04;;;;;;;6.68;5.90;;;;;;;22.79;72.11;98602.66;5053866;28;20664;-71
2022/07/21 08:46:34;;;;;;;6.57;6.07;;;;;;;22.86;72.50;98603.13;5054101;28;20672;-70
2022/07/21 08:49:03;;;;;;;6.20;5.60;;;;;;;22.90;72.90;98602.28;5052872;28;20221;-70
2022/07/21 08:51:34;;;;;;;5.95;5.45;;;;;;;22.79;70.65;98597.22;5054137;28;20289;-71
2022/07/21 08:54:02;;;;;;;6.18;5.72;;;;;;;22.68;72.84;98590.25;5054244;28;20193;-70
2022/07/21 08:56:29;;;;;;;5.95;5.30;;;;;;;22.52;73.60;98586.06;5053624;28;20201;-71
2022/07/21 08:58:55;;;;;;;6.50;6.00;;;;;;;22.67;69.23;98597.59;5053674;28;20247;-71
2022/07/21 09:01:23;;;;;;;6.75;6.03;;;;;;;22.89;74.17;98591.72;5053611;28;20312;-71
2022/07/21 09:03:51;;;;;;;6.50;5.75;;;;;;;23.06;69.74;98601.03;5053606;28;20229;-71
2022/07/21 09:06:18;;;;;;;6.30;5.65;;;;;;;23.28;69.58;98597.84;5053962;28;20295;-71
2022/07/21 09:08:51;;;;;;;6.20;5.70;;;;;;;23.48;67.25;98593.00;5053865;28;20225;-70
2022/07/21 09:11:22;;;;;;;5.90;5.32;;;;;;;23.41;66.25;98589.84;5053608;28;20672;-71
2022/07/21 09:14:09;;;;;;;6.53;5.68;;;;;;;23.43;69.77;98586.84;5053859;28;20212;-71
2022/07/21 09:16:38;;;;;;;6.45;5.78;;;;;;;23.37;66.78;98593.41;5053695;28;20196;-71
2022/07/21 09:19:05;;;;;;;7.35;5.82;;;;;;;23.57;66.90;98591.28;5053547;28;20225;-70
2022/07/21 09:21:35;;;;;;;6.15;5.65;;;;;;;23.71;66.78;98588.69;5053523;28;20278;-71
2022/07/21 09:24:17;;;;;;;6.75;6.07;;;;;;;23.69;63.46;98590.91;5053938;28;20564;-71
2022/07/21 09:27:09;;;;;;;5.55;5.05;;;;;;;23.84;61.67;98588.78;5053370;28;20660;-70
2022/07/21 09:29:38;;;;;;;6.40;4.80;;;;;;;23.97;61.07;98587.31;5053305;28;20316;-70
2022/07/21 09:32:15;;;;;;;5.38;4.88;;;;;;;24.41;60.69;98577.69;5053511;28;20244;-71
2022/07/21 09:34:41;;;;;;;5.30;4.80;;;;;;;24.13;59.07;98577.81;5053487;28;20659;-71
2022/07/21 09:37:08;;;;;;;5.03;4.60;;;;;;;24.48;58.72;98583.56;5052816;28;20587;-70
2022/07/21 09:39:49;;;;;;;4.93;4.50;;;;;;;24.57;58.53;98581.78;5053100;28;20240;-70
2022/07/21 09:42:28;;;;;;;4.82;4.43;;;;;;;24.76;58.50;98579.03;5053137;28;20214;-71
2022/07/21 09:45:01;;;;;;;5.32;4.35;;;;;;;24.93;57.36;98579.31;5053233;28;20195;-70
2022/07/21 09:47:30;;;;;;;4.07;3.75;;;;;;;25.05;55.21;98575.00;5053322;28;20215;-70
2022/07/21 09:49:58;;;;;;;4.53;4.13;;;;;;;25.26;55.89;98569.97;5052626;28;20227;-70
2022/07/21 09:52:36;;;;;;;4.68;4.28;;;;;;;25.53;55.18;98570.84;5052831;28;20679;-71
2022/07/21 09:55:05;;;;;;;4.97;4.00;;;;;;;25.26;53.56;98581.72;5053073;28;20200;-71
2022/07/21 09:57:33;;;;;;;5.40;4.45;;;;;;;25.29;53.21;98578.38;5053268;28;20644;-71
2022/07/21 10:00:02;;;;;;;4.88;3.95;;;;;;;25.12;53.58;98582.78;5052710;28;20327;-71
2022/07/21 10:02:30;;;;;;;4.72;4.30;;;;;;;25.01;58.22;98578.63;5052558;28;20232;-71
2022/07/21 10:04:56;;;;;;;6.13;4.30;;;;;;;25.10;54.41;98583.06;5052927;28;20213;-70
2022/07/21 10:07:24;;;;;;;4.88;4.25;;;;;;;25.39;54.52;98571.94;5053232;28;20641;-70
2022/07/21 10:09:50;;;;;;;4.85;4.45;;;;;;;25.65;52.51;98562.97;5052337;28;20229;-70
2022/07/21 10:12:18;;;;;;;5.13;4.60;;;;;;;25.85;53.41;98567.19;5052147;28;20203;-71
2022/07/21 10:14:46;;;;;;;4.93;4.45;;;;;;;26.27;53.27;98562.16;5056264;28;20297;-70
2022/07/21 10:17:16;;;;;;;5.43;4.00;;;;;;;26.12;50.94;98551.63;5057062;28;20201;-71
2022/07/21 10:20:07;;;;;;;4.45;4.05;;;;;;;25.49;52.93;98558.13;5056319;28;20711;-70
2022/07/21 10:22:56;;;;;;;5.85;4.88;;;;;;;25.41;55.00;98558.81;5056298;28;20209;-71
2022/07/21 10:25:23;;;;;;;4.88;4.47;;;;;;;25.24;54.03;98564.06;5055750;28;20663;-71
2022/07/21 10:28:11;;;;;;;5.93;4.43;;;;;;;25.11;52.64;98562.91;5056739;28;20207;-71
2022/07/21 10:30:39;;;;;;;4.75;4.35;;;;;;;25.49;52.32;98549.97;5056454;28;20208;-70
2022/07/21 10:33:05;;;;;;;5.30;4.60;;;;;;;25.66;52.47;98548.25;5057217;28;20204;-70
2022/07/21 10:35:33;;;;;;;4.75;4.35;;;;;;;25.89;51.52;98549.94;5056921;28;20287;-71
2022/07/21 10:38:00;;;;;;;4.70;4.30;;;;;;;25.60;50.98;98543.22;5056052;28;20683;-71
2022/07/21 10:40:27;;;;;;;4.38;3.97;;;;;;;25.87;53.58;98554.88;5055842;28;20233;-70
2022/07/21 10:43:02;;;;;;;4.38;3.97;;;;;;;26.20;51.65;98540.00;5056519;28;20256;-71
2022/07/21 10:45:36;;;;;;;5.03;4.53;;;;;;;26.18;51.00;98542.22;5056338;28;20299;-70
2022/07/21 10:48:05;;;;;;;4.47;4.07;;;;;;;26.23;52.79;98533.91;5056500;28;20208;-71
2022/07/21 10:50:32;;;;;;;5.45;4.15;;;;;;;26.26;50.87;98546.94;5055944;28;20726;-71
2022/07/21 10:53:01;;;;;;;4.32;3.92;;;;;;;25.95;50.44;98545.19;5056405;28;20201;-70
2022/07/21 10:55:30;;;;;;;4.38;3.70;;;;;;;25.89;50.95;98540.94;5056158;28;20208;-70
2022/07/21 10:58:09;;;;;;;4.85;4.35;;;;;;;25.48;52.91;98537.47;5056319;28;20574;-71
2022/07/21 11:00:37;;;;;;;4.78;3.95;;;;;;;25.16;52.55;98540.25;5055990;28;20767;-71
2022/07/21 11:03:13;;;;;;;5.07;4.20;;;;;;;25.06;53.12;98540.44;5056265;28;20240;-71
2022/07/21 11:06:18;;;;;;;5.28;3.95;;;;;;;25.07;52.75;98542.06;5056593;28;20185;-71
2022/07/21 11:08:50;;;;;;;4.30;3.90;;;;;;;24.99;50.60;98538.09;5055861;28;20253;-71
2022/07/21 11:11:25;;;;;;;4.55;4.00;;;;;;;25.07;50.28;98534.69;5056115;28;20239;-71
2022/07/21 11:14:04;;;;;;;5.20;3.80;;;;;;;24.94;50.83;98532.75;5055582;28;20189;-71
2022/07/21 11:16:39;;;;;;;5.35;3.55;;;;;;;25.21;49.65;98537.44;5055996;28;20205;-71
2022/07/21 11:19:05;;;;;;;3.78;3.47;;;;;;;25.33;50.73;98524.16;5056071;28;20228;-71
2022/07/21 11:21:32;;;;;;;9.60;3.80;;;;;;;25.26;48.69;98530.00;5055499;28;20702;-71
2022/07/21 11:23:58;;;;;;;3.90;3.40;;;;;;;25.27;49.18;98530.78;5055186;28;20209;-71